Troizk, Russia
Current Conditions -  °F | °C
As of 11:30 AM on Friday 31 Oct 2014 (Local Time) from USCC Reporting Station
Smoke Smoke  
Wind Chill: 34°   Ceiling: 7000
Heat Index: 39°   Visibility: 1.8mi
Dew Point: 37°   Wind: 7mph
Humidity: 93%   Direction: 180°S
Pressure: 30.12"   Gusts: NA
Location:  54.08°N, 61.62°E
Report Text: USCC 310530Z 18003MPS 3000 BR FU BKN070 04/03 Q1020 27290050NOSIG RMK QFE745
Loading
Personal Weather Stations






























Interactive Weather Map
Tropical Storm Tracking
New forecast layout! Learn more

10-Day Weather Forecast

Advertisements
Track Severe Weather on mobile